sensor_id;sensor_type;location;lat;lon;timestamp;P1;durP1;ratioP1;P2;durP2;ratioP2
23868;SDS011;12115;47.128;15.422;2023-08-30T00:01:33;0.20;;;0.20;;
23868;SDS011;12115;47.128;15.422;2023-08-30T00:04:00;3.08;;;0.20;;
23868;SDS011;12115;47.128;15.422;2023-08-30T00:06:28;2.10;;;0.20;;
23868;SDS011;12115;47.128;15.422;2023-08-30T00:08:57;0.95;;;0.40;;
23868;SDS011;12115;47.128;15.422;2023-08-30T00:11:24;0.68;;;0.30;;
23868;SDS011;12115;47.128;15.422;2023-08-30T00:13:52;2.92;;;0.35;;
23868;SDS011;12115;47.128;15.422;2023-08-30T00:16:19;0.20;;;0.10;;
23868;SDS011;12115;47.128;15.422;2023-08-30T00:18:46;1.60;;;0.17;;
23868;SDS011;12115;47.128;15.422;2023-08-30T00:21:14;0.73;;;0.17;;
23868;SDS011;12115;47.128;15.422;2023-08-30T00:23:43;0.30;;;0.20;;
23868;SDS011;12115;47.128;15.422;2023-08-30T00:26:10;3.28;;;0.30;;
23868;SDS011;12115;47.128;15.422;2023-08-30T00:28:37;1.00;;;0.30;;
23868;SDS011;12115;47.128;15.422;2023-08-30T00:31:05;1.80;;;0.30;;
23868;SDS011;12115;47.128;15.422;2023-08-30T00:33:32;0.55;;;0.30;;
23868;SDS011;12115;47.128;15.422;2023-08-30T00:36:00;2.13;;;0.20;;
23868;SDS011;12115;47.128;15.422;2023-08-30T00:38:27;1.05;;;0.30;;
23868;SDS011;12115;47.128;15.422;2023-08-30T00:40:55;0.50;;;0.20;;
23868;SDS011;12115;47.128;15.422;2023-08-30T00:43:22;0.55;;;0.30;;
23868;SDS011;12115;47.128;15.422;2023-08-30T00:45:49;0.77;;;0.28;;
23868;SDS011;12115;47.128;15.422;2023-08-30T00:48:19;1.08;;;0.20;;
23868;SDS011;12115;47.128;15.422;2023-08-30T00:50:47;1.35;;;0.38;;
23868;SDS011;12115;47.128;15.422;2023-08-30T00:53:15;2.50;;;0.43;;
23868;SDS011;12115;47.128;15.422;2023-08-30T00:55:44;1.58;;;0.50;;
23868;SDS011;12115;47.128;15.422;2023-08-30T00:58:11;4.82;;;0.30;;
23868;SDS011;12115;47.128;15.422;2023-08-30T01:00:39;0.43;;;0.30;;
23868;SDS011;12115;47.128;15.422;2023-08-30T01:03:09;0.50;;;0.35;;
23868;SDS011;12115;47.128;15.422;2023-08-30T01:05:37;2.65;;;0.40;;
23868;SDS011;12115;47.128;15.422;2023-08-30T01:08:04;1.55;;;0.50;;
23868;SDS011;12115;47.128;15.422;2023-08-30T01:13:42;1.52;;;0.30;;
23868;SDS011;12115;47.128;15.422;2023-08-30T01:16:16;0.55;;;0.30;;
23868;SDS011;12115;47.128;15.422;2023-08-30T01:18:47;1.42;;;0.30;;
23868;SDS011;12115;47.128;15.422;2023-08-30T01:21:21;0.45;;;0.25;;
23868;SDS011;12115;47.128;15.422;2023-08-30T01:24:07;1.40;;;0.20;;
23868;SDS011;12115;47.128;15.422;2023-08-30T01:29:11;2.13;;;0.30;;
23868;SDS011;12115;47.128;15.422;2023-08-30T01:31:40;1.73;;;0.22;;
23868;SDS011;12115;47.128;15.422;2023-08-30T01:34:09;0.47;;;0.20;;
23868;SDS011;12115;47.128;15.422;2023-08-30T01:36:36;3.33;;;0.30;;
23868;SDS011;12115;47.128;15.422;2023-08-30T01:39:03;3.10;;;0.28;;
23868;SDS011;12115;47.128;15.422;2023-08-30T01:41:31;2.75;;;0.50;;
23868;SDS011;12115;47.128;15.422;2023-08-30T01:43:59;3.85;;;0.52;;
23868;SDS011;12115;47.128;15.422;2023-08-30T01:46:33;0.53;;;0.30;;
23868;SDS011;12115;47.128;15.422;2023-08-30T01:49:02;0.63;;;0.33;;
23868;SDS011;12115;47.128;15.422;2023-08-30T01:51:30;4.10;;;0.22;;
23868;SDS011;12115;47.128;15.422;2023-08-30T01:54:01;0.95;;;0.35;;
23868;SDS011;12115;47.128;15.422;2023-08-30T01:56:30;1.33;;;0.40;;
23868;SDS011;12115;47.128;15.422;2023-08-30T01:58:58;1.55;;;0.20;;
23868;SDS011;12115;47.128;15.422;2023-08-30T02:01:25;0.60;;;0.30;;
23868;SDS011;12115;47.128;15.422;2023-08-30T02:03:52;0.68;;;0.30;;
23868;SDS011;12115;47.128;15.422;2023-08-30T02:06:24;1.10;;;0.47;;
23868;SDS011;12115;47.128;15.422;2023-08-30T02:09:09;1.38;;;0.20;;
23868;SDS011;12115;47.128;15.422;2023-08-30T02:11:38;1.65;;;0.30;;
23868;SDS011;12115;47.128;15.422;2023-08-30T02:14:12;3.05;;;0.55;;
23868;SDS011;12115;47.128;15.422;2023-08-30T02:16:47;2.08;;;0.50;;
23868;SDS011;12115;47.128;15.422;2023-08-30T02:19:15;0.40;;;0.20;;
23868;SDS011;12115;47.128;15.422;2023-08-30T02:21:48;0.20;;;0.13;;
23868;SDS011;12115;47.128;15.422;2023-08-30T02:24:17;4.57;;;0.40;;
23868;SDS011;12115;47.128;15.422;2023-08-30T02:26:44;0.75;;;0.22;;
23868;SDS011;12115;47.128;15.422;2023-08-30T02:29:14;2.17;;;0.40;;
23868;SDS011;12115;47.128;15.422;2023-08-30T02:31:41;1.15;;;0.30;;
23868;SDS011;12115;47.128;15.422;2023-08-30T02:34:09;2.80;;;0.20;;
23868;SDS011;12115;47.128;15.422;2023-08-30T02:36:36;0.60;;;0.30;;
23868;SDS011;12115;47.128;15.422;2023-08-30T02:39:04;0.68;;;0.30;;
23868;SDS011;12115;47.128;15.422;2023-08-30T02:41:31;4.03;;;0.40;;
23868;SDS011;12115;47.128;15.422;2023-08-30T02:43:58;0.30;;;0.20;;
23868;SDS011;12115;47.128;15.422;2023-08-30T02:46:25;1.65;;;0.57;;
23868;SDS011;12115;47.128;15.422;2023-08-30T02:48:52;1.55;;;0.40;;
23868;SDS011;12115;47.128;15.422;2023-08-30T02:51:19;0.52;;;0.30;;
23868;SDS011;12115;47.128;15.422;2023-08-30T02:53:46;0.20;;;0.20;;
23868;SDS011;12115;47.128;15.422;2023-08-30T02:56:13;2.60;;;0.50;;
23868;SDS011;12115;47.128;15.422;2023-08-30T02:58:41;1.40;;;0.30;;
23868;SDS011;12115;47.128;15.422;2023-08-30T03:01:08;1.73;;;0.50;;
23868;SDS011;12115;47.128;15.422;2023-08-30T03:03:36;2.47;;;0.30;;
23868;SDS011;12115;47.128;15.422;2023-08-30T03:06:03;0.55;;;0.38;;
23868;SDS011;12115;47.128;15.422;2023-08-30T03:08:30;2.15;;;0.40;;
23868;SDS011;12115;47.128;15.422;2023-08-30T03:11:08;2.20;;;0.68;;
23868;SDS011;12115;47.128;15.422;2023-08-30T03:13:47;0.55;;;0.30;;
23868;SDS011;12115;47.128;15.422;2023-08-30T03:16:16;1.25;;;0.30;;
23868;SDS011;12115;47.128;15.422;2023-08-30T03:18:44;1.00;;;0.30;;
23868;SDS011;12115;47.128;15.422;2023-08-30T03:21:11;0.88;;;0.50;;
23868;SDS011;12115;47.128;15.422;2023-08-30T03:23:39;1.17;;;0.50;;
23868;SDS011;12115;47.128;15.422;2023-08-30T03:26:12;2.30;;;0.40;;
23868;SDS011;12115;47.128;15.422;2023-08-30T03:28:40;1.25;;;0.30;;
23868;SDS011;12115;47.128;15.422;2023-08-30T03:33:44;1.25;;;0.43;;
23868;SDS011;12115;47.128;15.422;2023-08-30T03:36:17;1.83;;;0.43;;
23868;SDS011;12115;47.128;15.422;2023-08-30T03:38:45;1.02;;;0.40;;
23868;SDS011;12115;47.128;15.422;2023-08-30T03:41:14;1.10;;;0.40;;
23868;SDS011;12115;47.128;15.422;2023-08-30T03:43:43;0.95;;;0.45;;
23868;SDS011;12115;47.128;15.422;2023-08-30T03:46:11;1.67;;;0.60;;
23868;SDS011;12115;47.128;15.422;2023-08-30T03:48:49;1.88;;;0.63;;
23868;SDS011;12115;47.128;15.422;2023-08-30T03:51:16;3.33;;;0.82;;
23868;SDS011;12115;47.128;15.422;2023-08-30T03:53:44;1.45;;;0.52;;
23868;SDS011;12115;47.128;15.422;2023-08-30T03:56:12;1.10;;;0.50;;
23868;SDS011;12115;47.128;15.422;2023-08-30T03:58:44;3.35;;;0.73;;
23868;SDS011;12115;47.128;15.422;2023-08-30T04:01:11;1.23;;;0.40;;
23868;SDS011;12115;47.128;15.422;2023-08-30T04:03:38;1.00;;;0.50;;
23868;SDS011;12115;47.128;15.422;2023-08-30T04:06:06;2.00;;;0.75;;
23868;SDS011;12115;47.128;15.422;2023-08-30T04:08:34;3.67;;;0.73;;
23868;SDS011;12115;47.128;15.422;2023-08-30T04:11:01;1.55;;;0.55;;
23868;SDS011;12115;47.128;15.422;2023-08-30T04:13:31;1.55;;;0.45;;
23868;SDS011;12115;47.128;15.422;2023-08-30T04:15:58;1.60;;;0.70;;
23868;SDS011;12115;47.128;15.422;2023-08-30T04:18:31;0.60;;;0.35;;
23868;SDS011;12115;47.128;15.422;2023-08-30T04:21:02;2.92;;;0.65;;
23868;SDS011;12115;47.128;15.422;2023-08-30T04:23:35;3.10;;;0.80;;
23868;SDS011;12115;47.128;15.422;2023-08-30T04:26:03;1.00;;;0.60;;
23868;SDS011;12115;47.128;15.422;2023-08-30T04:28:31;2.92;;;0.40;;
23868;SDS011;12115;47.128;15.422;2023-08-30T04:30:58;1.23;;;0.73;;
23868;SDS011;12115;47.128;15.422;2023-08-30T04:33:26;1.63;;;0.47;;
23868;SDS011;12115;47.128;15.422;2023-08-30T04:35:54;8.70;;;0.70;;
23868;SDS011;12115;47.128;15.422;2023-08-30T04:38:21;1.83;;;0.60;;
23868;SDS011;12115;47.128;15.422;2023-08-30T04:40:49;2.28;;;0.60;;
23868;SDS011;12115;47.128;15.422;2023-08-30T04:43:16;2.42;;;0.60;;
23868;SDS011;12115;47.128;15.422;2023-08-30T04:45:43;2.28;;;0.68;;
23868;SDS011;12115;47.128;15.422;2023-08-30T04:48:14;1.73;;;0.68;;
23868;SDS011;12115;47.128;15.422;2023-08-30T04:50:45;2.60;;;0.60;;
23868;SDS011;12115;47.128;15.422;2023-08-30T04:53:12;0.75;;;0.60;;
23868;SDS011;12115;47.128;15.422;2023-08-30T04:55:39;0.77;;;0.52;;
23868;SDS011;12115;47.128;15.422;2023-08-30T04:58:08;1.67;;;0.80;;
23868;SDS011;12115;47.128;15.422;2023-08-30T05:00:35;0.70;;;0.57;;
23868;SDS011;12115;47.128;15.422;2023-08-30T05:03:02;1.02;;;0.45;;
23868;SDS011;12115;47.128;15.422;2023-08-30T05:05:30;1.08;;;0.55;;
23868;SDS011;12115;47.128;15.422;2023-08-30T05:07:58;1.73;;;0.65;;
23868;SDS011;12115;47.128;15.422;2023-08-30T05:10:26;1.13;;;0.60;;
23868;SDS011;12115;47.128;15.422;2023-08-30T05:12:53;3.63;;;0.77;;
23868;SDS011;12115;47.128;15.422;2023-08-30T05:15:20;1.77;;;0.80;;
23868;SDS011;12115;47.128;15.422;2023-08-30T05:17:47;2.22;;;0.57;;
23868;SDS011;12115;47.128;15.422;2023-08-30T05:20:15;0.68;;;0.35;;
23868;SDS011;12115;47.128;15.422;2023-08-30T05:22:42;2.20;;;0.85;;
23868;SDS011;12115;47.128;15.422;2023-08-30T05:25:09;2.10;;;0.63;;
23868;SDS011;12115;47.128;15.422;2023-08-30T05:27:36;4.47;;;0.55;;
23868;SDS011;12115;47.128;15.422;2023-08-30T05:30:04;0.93;;;0.65;;
23868;SDS011;12115;47.128;15.422;2023-08-30T05:32:32;1.55;;;0.68;;
23868;SDS011;12115;47.128;15.422;2023-08-30T05:35:06;6.15;;;0.70;;
23868;SDS011;12115;47.128;15.422;2023-08-30T05:37:52;2.53;;;0.70;;
23868;SDS011;12115;47.128;15.422;2023-08-30T05:40:39;0.60;;;0.43;;
23868;SDS011;12115;47.128;15.422;2023-08-30T05:43:09;2.65;;;0.75;;
23868;SDS011;12115;47.128;15.422;2023-08-30T05:45:37;1.30;;;0.43;;
23868;SDS011;12115;47.128;15.422;2023-08-30T05:48:05;2.35;;;0.80;;
23868;SDS011;12115;47.128;15.422;2023-08-30T05:50:33;1.45;;;0.80;;
23868;SDS011;12115;47.128;15.422;2023-08-30T05:53:01;1.02;;;0.70;;
23868;SDS011;12115;47.128;15.422;2023-08-30T05:55:29;0.93;;;0.63;;
23868;SDS011;12115;47.128;15.422;2023-08-30T05:57:57;5.78;;;0.63;;
23868;SDS011;12115;47.128;15.422;2023-08-30T06:00:24;0.95;;;0.60;;
23868;SDS011;12115;47.128;15.422;2023-08-30T06:02:52;1.05;;;0.50;;
23868;SDS011;12115;47.128;15.422;2023-08-30T06:05:19;1.88;;;0.63;;
23868;SDS011;12115;47.128;15.422;2023-08-30T06:07:49;1.23;;;0.50;;
23868;SDS011;12115;47.128;15.422;2023-08-30T06:10:17;0.80;;;0.40;;
23868;SDS011;12115;47.128;15.422;2023-08-30T06:12:44;2.80;;;0.57;;
23868;SDS011;12115;47.128;15.422;2023-08-30T06:15:12;0.65;;;0.50;;
23868;SDS011;12115;47.128;15.422;2023-08-30T06:17:39;2.88;;;0.40;;
23868;SDS011;12115;47.128;15.422;2023-08-30T06:20:06;0.50;;;0.50;;
23868;SDS011;12115;47.128;15.422;2023-08-30T06:22:34;3.47;;;0.85;;
23868;SDS011;12115;47.128;15.422;2023-08-30T06:25:01;4.97;;;0.40;;
23868;SDS011;12115;47.128;15.422;2023-08-30T06:27:30;2.95;;;0.57;;
23868;SDS011;12115;47.128;15.422;2023-08-30T06:29:58;2.10;;;0.63;;
23868;SDS011;12115;47.128;15.422;2023-08-30T06:32:25;2.75;;;0.90;;
23868;SDS011;12115;47.128;15.422;2023-08-30T06:34:52;1.50;;;0.90;;
23868;SDS011;12115;47.128;15.422;2023-08-30T06:37:19;3.38;;;0.90;;
23868;SDS011;12115;47.128;15.422;2023-08-30T06:39:46;1.65;;;0.90;;
23868;SDS011;12115;47.128;15.422;2023-08-30T06:42:13;3.63;;;0.57;;
23868;SDS011;12115;47.128;15.422;2023-08-30T06:44:41;1.00;;;0.47;;
23868;SDS011;12115;47.128;15.422;2023-08-30T06:47:08;2.95;;;0.50;;
23868;SDS011;12115;47.128;15.422;2023-08-30T06:49:35;3.22;;;0.70;;
23868;SDS011;12115;47.128;15.422;2023-08-30T06:52:02;0.68;;;0.43;;
23868;SDS011;12115;47.128;15.422;2023-08-30T06:54:34;2.20;;;0.45;;
23868;SDS011;12115;47.128;15.422;2023-08-30T06:57:03;1.05;;;0.30;;
23868;SDS011;12115;47.128;15.422;2023-08-30T06:59:32;2.50;;;0.50;;
23868;SDS011;12115;47.128;15.422;2023-08-30T07:01:59;1.83;;;0.40;;
23868;SDS011;12115;47.128;15.422;2023-08-30T07:04:27;2.15;;;0.50;;
23868;SDS011;12115;47.128;15.422;2023-08-30T07:06:54;2.00;;;0.40;;
23868;SDS011;12115;47.128;15.422;2023-08-30T07:09:22;1.45;;;0.40;;
23868;SDS011;12115;47.128;15.422;2023-08-30T07:11:56;1.52;;;0.25;;
23868;SDS011;12115;47.128;15.422;2023-08-30T07:14:23;1.45;;;0.22;;
23868;SDS011;12115;47.128;15.422;2023-08-30T07:16:50;0.68;;;0.20;;
23868;SDS011;12115;47.128;15.422;2023-08-30T07:19:17;3.30;;;0.30;;
23868;SDS011;12115;47.128;15.422;2023-08-30T07:21:44;1.85;;;0.30;;
23868;SDS011;12115;47.128;15.422;2023-08-30T07:24:12;1.48;;;0.30;;
23868;SDS011;12115;47.128;15.422;2023-08-30T07:26:39;1.48;;;0.30;;
23868;SDS011;12115;47.128;15.422;2023-08-30T07:29:08;1.05;;;0.30;;
23868;SDS011;12115;47.128;15.422;2023-08-30T07:31:36;2.78;;;0.30;;
23868;SDS011;12115;47.128;15.422;2023-08-30T07:34:03;1.17;;;0.30;;
23868;SDS011;12115;47.128;15.422;2023-08-30T07:36:31;1.75;;;0.43;;
23868;SDS011;12115;47.128;15.422;2023-08-30T07:39:12;1.60;;;0.47;;
23868;SDS011;12115;47.128;15.422;2023-08-30T07:41:39;3.13;;;0.50;;
23868;SDS011;12115;47.128;15.422;2023-08-30T07:44:07;1.10;;;0.47;;
23868;SDS011;12115;47.128;15.422;2023-08-30T07:46:34;1.08;;;0.50;;
23868;SDS011;12115;47.128;15.422;2023-08-30T07:49:01;1.48;;;0.47;;
23868;SDS011;12115;47.128;15.422;2023-08-30T07:51:30;1.83;;;0.57;;
23868;SDS011;12115;47.128;15.422;2023-08-30T07:53:57;2.08;;;0.60;;
23868;SDS011;12115;47.128;15.422;2023-08-30T07:56:24;1.35;;;0.40;;
23868;SDS011;12115;47.128;15.422;2023-08-30T07:58:53;2.65;;;0.50;;
23868;SDS011;12115;47.128;15.422;2023-08-30T08:01:21;0.77;;;0.45;;
23868;SDS011;12115;47.128;15.422;2023-08-30T08:03:48;3.33;;;0.52;;
23868;SDS011;12115;47.128;15.422;2023-08-30T08:06:33;2.20;;;0.35;;
23868;SDS011;12115;47.128;15.422;2023-08-30T08:09:00;1.50;;;0.50;;
23868;SDS011;12115;47.128;15.422;2023-08-30T08:11:28;1.73;;;0.63;;
23868;SDS011;12115;47.128;15.422;2023-08-30T08:13:55;1.70;;;0.43;;
23868;SDS011;12115;47.128;15.422;2023-08-30T08:16:23;1.75;;;0.60;;
23868;SDS011;12115;47.128;15.422;2023-08-30T08:18:50;3.22;;;0.60;;
23868;SDS011;12115;47.128;15.422;2023-08-30T08:21:18;1.15;;;0.35;;
23868;SDS011;12115;47.128;15.422;2023-08-30T08:23:45;0.40;;;0.40;;
23868;SDS011;12115;47.128;15.422;2023-08-30T08:26:16;0.75;;;0.52;;
23868;SDS011;12115;47.128;15.422;2023-08-30T08:28:43;0.55;;;0.30;;
23868;SDS011;12115;47.128;15.422;2023-08-30T08:31:10;2.10;;;0.60;;
23868;SDS011;12115;47.128;15.422;2023-08-30T08:33:38;3.25;;;0.73;;
23868;SDS011;12115;47.128;15.422;2023-08-30T08:36:05;2.88;;;0.47;;
23868;SDS011;12115;47.128;15.422;2023-08-30T08:38:32;0.77;;;0.52;;
23868;SDS011;12115;47.128;15.422;2023-08-30T08:41:10;1.23;;;0.60;;
23868;SDS011;12115;47.128;15.422;2023-08-30T08:43:40;2.13;;;0.80;;
23868;SDS011;12115;47.128;15.422;2023-08-30T08:46:09;3.05;;;0.90;;
23868;SDS011;12115;47.128;15.422;2023-08-30T08:48:39;2.85;;;0.50;;
23868;SDS011;12115;47.128;15.422;2023-08-30T08:51:09;1.02;;;0.60;;
23868;SDS011;12115;47.128;15.422;2023-08-30T08:53:37;1.00;;;0.70;;
23868;SDS011;12115;47.128;15.422;2023-08-30T08:56:05;1.83;;;0.70;;
23868;SDS011;12115;47.128;15.422;2023-08-30T08:58:35;1.55;;;0.50;;
23868;SDS011;12115;47.128;15.422;2023-08-30T09:01:04;4.88;;;0.60;;
23868;SDS011;12115;47.128;15.422;2023-08-30T09:03:35;1.17;;;0.80;;
23868;SDS011;12115;47.128;15.422;2023-08-30T09:06:03;1.35;;;0.80;;
23868;SDS011;12115;47.128;15.422;2023-08-30T09:08:30;2.13;;;0.90;;
23868;SDS011;12115;47.128;15.422;2023-08-30T09:10:57;2.70;;;0.50;;
23868;SDS011;12115;47.128;15.422;2023-08-30T09:13:26;0.50;;;0.50;;
23868;SDS011;12115;47.128;15.422;2023-08-30T09:15:53;3.03;;;0.70;;
23868;SDS011;12115;47.128;15.422;2023-08-30T09:18:20;3.25;;;0.88;;
23868;SDS011;12115;47.128;15.422;2023-08-30T09:20:47;5.00;;;1.05;;
23868;SDS011;12115;47.128;15.422;2023-08-30T09:23:17;4.10;;;0.77;;
23868;SDS011;12115;47.128;15.422;2023-08-30T09:25:53;0.80;;;0.50;;
23868;SDS011;12115;47.128;15.422;2023-08-30T09:28:21;3.00;;;0.93;;
23868;SDS011;12115;47.128;15.422;2023-08-30T09:30:52;2.08;;;0.60;;
23868;SDS011;12115;47.128;15.422;2023-08-30T09:33:22;2.05;;;0.50;;
23868;SDS011;12115;47.128;15.422;2023-08-30T09:35:52;1.23;;;0.50;;
23868;SDS011;12115;47.128;15.422;2023-08-30T09:38:22;2.20;;;0.50;;
23868;SDS011;12115;47.128;15.422;2023-08-30T09:40:49;1.88;;;0.80;;
23868;SDS011;12115;47.128;15.422;2023-08-30T09:43:20;0.50;;;0.40;;
23868;SDS011;12115;47.128;15.422;2023-08-30T09:45:50;1.00;;;0.30;;
23868;SDS011;12115;47.128;15.422;2023-08-30T09:48:21;1.65;;;0.50;;
23868;SDS011;12115;47.128;15.422;2023-08-30T09:50:50;0.75;;;0.30;;
23868;SDS011;12115;47.128;15.422;2023-08-30T09:53:21;1.83;;;0.40;;
23868;SDS011;12115;47.128;15.422;2023-08-30T09:55:53;4.35;;;0.73;;
23868;SDS011;12115;47.128;15.422;2023-08-30T09:58:20;2.67;;;0.60;;
23868;SDS011;12115;47.128;15.422;2023-08-30T10:00:49;6.03;;;0.40;;
23868;SDS011;12115;47.128;15.422;2023-08-30T10:03:16;1.23;;;0.40;;
23868;SDS011;12115;47.128;15.422;2023-08-30T10:06:05;0.65;;;0.40;;
23868;SDS011;12115;47.128;15.422;2023-08-30T10:08:33;0.95;;;0.47;;
23868;SDS011;12115;47.128;15.422;2023-08-30T10:11:03;2.78;;;0.50;;
23868;SDS011;12115;47.128;15.422;2023-08-30T10:13:32;2.92;;;0.50;;
23868;SDS011;12115;47.128;15.422;2023-08-30T10:16:04;1.48;;;0.55;;
23868;SDS011;12115;47.128;15.422;2023-08-30T10:18:32;0.93;;;0.30;;
23868;SDS011;12115;47.128;15.422;2023-08-30T10:21:01;2.20;;;0.40;;
23868;SDS011;12115;47.128;15.422;2023-08-30T10:23:31;1.05;;;0.30;;
23868;SDS011;12115;47.128;15.422;2023-08-30T10:25:58;1.88;;;0.30;;
23868;SDS011;12115;47.128;15.422;2023-08-30T10:28:27;0.93;;;0.30;;
23868;SDS011;12115;47.128;15.422;2023-08-30T10:30:55;1.25;;;0.55;;
23868;SDS011;12115;47.128;15.422;2023-08-30T10:33:22;0.82;;;0.40;;
23868;SDS011;12115;47.128;15.422;2023-08-30T10:36:02;1.98;;;0.40;;
23868;SDS011;12115;47.128;15.422;2023-08-30T10:38:32;1.38;;;0.88;;
23868;SDS011;12115;47.128;15.422;2023-08-30T10:41:06;1.95;;;0.50;;
23868;SDS011;12115;47.128;15.422;2023-08-30T10:43:35;1.42;;;0.70;;
23868;SDS011;12115;47.128;15.422;2023-08-30T10:46:03;1.85;;;0.80;;
23868;SDS011;12115;47.128;15.422;2023-08-30T10:48:38;2.10;;;0.75;;
23868;SDS011;12115;47.128;15.422;2023-08-30T10:51:07;1.40;;;0.60;;
23868;SDS011;12115;47.128;15.422;2023-08-30T10:56:28;1.23;;;0.52;;
23868;SDS011;12115;47.128;15.422;2023-08-30T10:58:57;2.10;;;0.40;;
23868;SDS011;12115;47.128;15.422;2023-08-30T11:01:24;0.85;;;0.30;;
23868;SDS011;12115;47.128;15.422;2023-08-30T11:03:52;1.25;;;0.30;;
23868;SDS011;12115;47.128;15.422;2023-08-30T11:06:39;0.90;;;0.20;;
23868;SDS011;12115;47.128;15.422;2023-08-30T11:09:09;3.10;;;0.35;;
23868;SDS011;12115;47.128;15.422;2023-08-30T11:11:37;1.25;;;0.30;;
23868;SDS011;12115;47.128;15.422;2023-08-30T11:14:06;1.80;;;0.40;;
23868;SDS011;12115;47.128;15.422;2023-08-30T11:16:35;1.55;;;0.35;;
23868;SDS011;12115;47.128;15.422;2023-08-30T11:19:03;3.03;;;0.30;;
23868;SDS011;12115;47.128;15.422;2023-08-30T11:21:31;2.47;;;0.30;;
23868;SDS011;12115;47.128;15.422;2023-08-30T11:24:00;2.53;;;0.30;;
23868;SDS011;12115;47.128;15.422;2023-08-30T11:26:27;3.83;;;0.40;;
23868;SDS011;12115;47.128;15.422;2023-08-30T11:28:53;1.17;;;0.30;;
23868;SDS011;12115;47.128;15.422;2023-08-30T11:33:52;0.75;;;0.30;;
23868;SDS011;12115;47.128;15.422;2023-08-30T11:36:21;1.20;;;0.30;;
23868;SDS011;12115;47.128;15.422;2023-08-30T11:38:50;2.40;;;0.32;;
23868;SDS011;12115;47.128;15.422;2023-08-30T11:41:17;2.03;;;0.32;;
23868;SDS011;12115;47.128;15.422;2023-08-30T11:43:49;2.30;;;0.30;;
23868;SDS011;12115;47.128;15.422;2023-08-30T11:46:17;1.40;;;0.30;;
23868;SDS011;12115;47.128;15.422;2023-08-30T11:48:48;0.80;;;0.30;;
23868;SDS011;12115;47.128;15.422;2023-08-30T11:51:16;0.45;;;0.30;;
23868;SDS011;12115;47.128;15.422;2023-08-30T11:53:45;1.30;;;0.32;;
23868;SDS011;12115;47.128;15.422;2023-08-30T11:56:12;0.32;;;0.20;;
23868;SDS011;12115;47.128;15.422;2023-08-30T11:58:40;2.75;;;0.30;;
23868;SDS011;12115;47.128;15.422;2023-08-30T12:01:07;0.60;;;0.30;;
23868;SDS011;12115;47.128;15.422;2023-08-30T12:03:34;3.60;;;0.40;;
23868;SDS011;12115;47.128;15.422;2023-08-30T12:06:08;0.55;;;0.30;;
23868;SDS011;12115;47.128;15.422;2023-08-30T12:08:38;1.88;;;0.30;;
23868;SDS011;12115;47.128;15.422;2023-08-30T12:11:05;0.45;;;0.30;;
23868;SDS011;12115;47.128;15.422;2023-08-30T12:13:33;1.02;;;0.20;;
23868;SDS011;12115;47.128;15.422;2023-08-30T12:16:01;1.30;;;0.20;;
23868;SDS011;12115;47.128;15.422;2023-08-30T12:18:29;1.55;;;0.32;;
23868;SDS011;12115;47.128;15.422;2023-08-30T12:21:02;0.63;;;0.15;;
23868;SDS011;12115;47.128;15.422;2023-08-30T12:23:31;1.23;;;0.40;;
23868;SDS011;12115;47.128;15.422;2023-08-30T12:26:00;0.82;;;0.30;;
23868;SDS011;12115;47.128;15.422;2023-08-30T12:28:30;0.30;;;0.13;;
23868;SDS011;12115;47.128;15.422;2023-08-30T12:31:01;0.75;;;0.30;;
23868;SDS011;12115;47.128;15.422;2023-08-30T12:33:35;0.77;;;0.20;;
23868;SDS011;12115;47.128;15.422;2023-08-30T12:36:02;1.42;;;0.32;;
23868;SDS011;12115;47.128;15.422;2023-08-30T12:38:30;2.80;;;0.38;;
23868;SDS011;12115;47.128;15.422;2023-08-30T12:40:57;0.35;;;0.20;;
23868;SDS011;12115;47.128;15.422;2023-08-30T12:43:24;1.00;;;0.20;;
23868;SDS011;12115;47.128;15.422;2023-08-30T12:45:51;2.75;;;0.35;;
23868;SDS011;12115;47.128;15.422;2023-08-30T12:48:18;0.52;;;0.22;;
23868;SDS011;12115;47.128;15.422;2023-08-30T12:50:46;0.93;;;0.40;;
23868;SDS011;12115;47.128;15.422;2023-08-30T12:53:14;1.65;;;0.22;;
23868;SDS011;12115;47.128;15.422;2023-08-30T12:55:43;0.93;;;0.40;;
23868;SDS011;12115;47.128;15.422;2023-08-30T12:58:10;1.15;;;0.40;;
23868;SDS011;12115;47.128;15.422;2023-08-30T13:00:38;1.70;;;0.68;;
23868;SDS011;12115;47.128;15.422;2023-08-30T13:03:05;2.03;;;0.60;;
23868;SDS011;12115;47.128;15.422;2023-08-30T13:05:32;1.55;;;0.52;;
23868;SDS011;12115;47.128;15.422;2023-08-30T13:08:00;0.52;;;0.32;;
23868;SDS011;12115;47.128;15.422;2023-08-30T13:10:27;0.70;;;0.40;;
23868;SDS011;12115;47.128;15.422;2023-08-30T13:12:54;2.22;;;0.40;;
23868;SDS011;12115;47.128;15.422;2023-08-30T13:15:22;0.80;;;0.20;;
23868;SDS011;12115;47.128;15.422;2023-08-30T13:17:49;0.82;;;0.20;;
23868;SDS011;12115;47.128;15.422;2023-08-30T13:20:16;0.30;;;0.20;;
23868;SDS011;12115;47.128;15.422;2023-08-30T13:22:43;0.82;;;0.45;;
23868;SDS011;12115;47.128;15.422;2023-08-30T13:25:10;2.33;;;0.30;;
23868;SDS011;12115;47.128;15.422;2023-08-30T13:27:38;1.13;;;0.40;;
23868;SDS011;12115;47.128;15.422;2023-08-30T13:30:06;1.38;;;0.20;;
23868;SDS011;12115;47.128;15.422;2023-08-30T13:32:34;0.50;;;0.25;;
23868;SDS011;12115;47.128;15.422;2023-08-30T13:35:02;1.45;;;0.25;;
23868;SDS011;12115;47.128;15.422;2023-08-30T13:37:30;1.00;;;0.30;;
23868;SDS011;12115;47.128;15.422;2023-08-30T13:39:57;1.20;;;0.30;;
23868;SDS011;12115;47.128;15.422;2023-08-30T13:42:25;0.47;;;0.20;;
23868;SDS011;12115;47.128;15.422;2023-08-30T13:44:53;1.05;;;0.50;;
23868;SDS011;12115;47.128;15.422;2023-08-30T13:47:21;0.57;;;0.25;;
23868;SDS011;12115;47.128;15.422;2023-08-30T13:49:49;0.60;;;0.20;;
23868;SDS011;12115;47.128;15.422;2023-08-30T13:52:17;0.45;;;0.30;;
23868;SDS011;12115;47.128;15.422;2023-08-30T13:54:45;1.33;;;0.20;;
23868;SDS011;12115;47.128;15.422;2023-08-30T13:57:12;1.58;;;0.40;;
23868;SDS011;12115;47.128;15.422;2023-08-30T13:59:41;1.20;;;0.45;;
23868;SDS011;12115;47.128;15.422;2023-08-30T14:02:09;2.15;;;0.50;;
23868;SDS011;12115;47.128;15.422;2023-08-30T14:04:37;0.73;;;0.30;;
23868;SDS011;12115;47.128;15.422;2023-08-30T14:07:04;1.45;;;0.38;;
23868;SDS011;12115;47.128;15.422;2023-08-30T14:09:32;1.25;;;0.47;;
23868;SDS011;12115;47.128;15.422;2023-08-30T14:12:00;0.60;;;0.30;;
23868;SDS011;12115;47.128;15.422;2023-08-30T14:14:32;1.05;;;0.40;;
23868;SDS011;12115;47.128;15.422;2023-08-30T14:17:00;2.85;;;0.60;;
23868;SDS011;12115;47.128;15.422;2023-08-30T14:19:27;2.28;;;0.40;;
23868;SDS011;12115;47.128;15.422;2023-08-30T14:21:55;5.53;;;0.57;;
23868;SDS011;12115;47.128;15.422;2023-08-30T14:24:24;1.55;;;0.60;;
23868;SDS011;12115;47.128;15.422;2023-08-30T14:26:52;0.68;;;0.35;;
23868;SDS011;12115;47.128;15.422;2023-08-30T14:29:20;0.60;;;0.38;;
23868;SDS011;12115;47.128;15.422;2023-08-30T14:31:49;0.52;;;0.30;;
23868;SDS011;12115;47.128;15.422;2023-08-30T14:34:17;0.82;;;0.50;;
23868;SDS011;12115;47.128;15.422;2023-08-30T14:36:47;1.17;;;0.38;;
23868;SDS011;12115;47.128;15.422;2023-08-30T14:39:15;2.42;;;0.40;;
23868;SDS011;12115;47.128;15.422;2023-08-30T14:41:43;1.38;;;0.30;;
23868;SDS011;12115;47.128;15.422;2023-08-30T14:44:12;1.42;;;0.30;;
23868;SDS011;12115;47.128;15.422;2023-08-30T14:46:41;0.98;;;0.32;;
23868;SDS011;12115;47.128;15.422;2023-08-30T14:49:12;0.45;;;0.40;;
23868;SDS011;12115;47.128;15.422;2023-08-30T14:51:41;0.40;;;0.20;;
23868;SDS011;12115;47.128;15.422;2023-08-30T14:54:09;0.73;;;0.30;;
23868;SDS011;12115;47.128;15.422;2023-08-30T14:56:38;0.85;;;0.40;;